sensor_id;sensor_type;location;lat;lon;timestamp;P1;durP1;ratioP1;P2;durP2;ratioP2
22652;SDS011;11493;43.344;26.226;2022-07-29T00:01:07;7.68;;;6.97;;
22652;SDS011;11493;43.344;26.226;2022-07-29T00:03:45;10.65;;;6.75;;
22652;SDS011;11493;43.344;26.226;2022-07-29T00:06:17;9.35;;;7.32;;
22652;SDS011;11493;43.344;26.226;2022-07-29T00:08:50;13.65;;;7.07;;
22652;SDS011;11493;43.344;26.226;2022-07-29T00:11:23;9.60;;;6.85;;
22652;SDS011;11493;43.344;26.226;2022-07-29T00:13:50;7.68;;;7.00;;
22652;SDS011;11493;43.344;26.226;2022-07-29T00:16:17;7.78;;;7.03;;
22652;SDS011;11493;43.344;26.226;2022-07-29T00:18:45;13.25;;;6.93;;
22652;SDS011;11493;43.344;26.226;2022-07-29T00:21:12;7.97;;;6.93;;
22652;SDS011;11493;43.344;26.226;2022-07-29T00:23:39;13.32;;;6.50;;
22652;SDS011;11493;43.344;26.226;2022-07-29T00:26:07;8.75;;;7.68;;
22652;SDS011;11493;43.344;26.226;2022-07-29T00:28:34;16.27;;;7.05;;
22652;SDS011;11493;43.344;26.226;2022-07-29T00:31:06;9.88;;;7.38;;
22652;SDS011;11493;43.344;26.226;2022-07-29T00:33:38;9.00;;;6.32;;
22652;SDS011;11493;43.344;26.226;2022-07-29T00:36:05;6.63;;;6.03;;
22652;SDS011;11493;43.344;26.226;2022-07-29T00:38:33;7.95;;;6.47;;
22652;SDS011;11493;43.344;26.226;2022-07-29T00:41:00;7.93;;;6.05;;
22652;SDS011;11493;43.344;26.226;2022-07-29T00:43:27;7.15;;;6.47;;
22652;SDS011;11493;43.344;26.226;2022-07-29T00:45:55;6.65;;;5.95;;
22652;SDS011;11493;43.344;26.226;2022-07-29T00:48:22;12.85;;;5.95;;
22652;SDS011;11493;43.344;26.226;2022-07-29T00:50:50;12.13;;;6.38;;
22652;SDS011;11493;43.344;26.226;2022-07-29T00:53:18;12.55;;;6.75;;
22652;SDS011;11493;43.344;26.226;2022-07-29T00:55:47;11.98;;;5.25;;
22652;SDS011;11493;43.344;26.226;2022-07-29T00:58:30;7.82;;;6.55;;
22652;SDS011;11493;43.344;26.226;2022-07-29T01:01:02;10.93;;;6.82;;
22652;SDS011;11493;43.344;26.226;2022-07-29T01:03:30;7.63;;;6.30;;
22652;SDS011;11493;43.344;26.226;2022-07-29T01:05:57;11.60;;;7.35;;
22652;SDS011;11493;43.344;26.226;2022-07-29T01:08:25;10.50;;;7.45;;
22652;SDS011;11493;43.344;26.226;2022-07-29T01:10:52;7.68;;;6.32;;
22652;SDS011;11493;43.344;26.226;2022-07-29T01:13:22;10.77;;;6.07;;
22652;SDS011;11493;43.344;26.226;2022-07-29T01:15:56;14.15;;;6.97;;
22652;SDS011;11493;43.344;26.226;2022-07-29T01:18:47;14.43;;;7.20;;
22652;SDS011;11493;43.344;26.226;2022-07-29T01:21:25;9.00;;;6.25;;
22652;SDS011;11493;43.344;26.226;2022-07-29T01:24:14;7.05;;;6.35;;
22652;SDS011;11493;43.344;26.226;2022-07-29T01:27:00;7.47;;;6.10;;
22652;SDS011;11493;43.344;26.226;2022-07-29T01:29:45;9.18;;;6.55;;
22652;SDS011;11493;43.344;26.226;2022-07-29T01:32:20;12.77;;;6.20;;
22652;SDS011;11493;43.344;26.226;2022-07-29T01:43:22;6.75;;;6.15;;
22652;SDS011;11493;43.344;26.226;2022-07-29T01:46:04;8.90;;;6.55;;
22652;SDS011;11493;43.344;26.226;2022-07-29T01:48:40;7.22;;;6.30;;
22652;SDS011;11493;43.344;26.226;2022-07-29T01:51:20;10.68;;;6.95;;
22652;SDS011;11493;43.344;26.226;2022-07-29T01:53:55;9.13;;;6.10;;
22652;SDS011;11493;43.344;26.226;2022-07-29T01:56:35;7.10;;;6.07;;
22652;SDS011;11493;43.344;26.226;2022-07-29T01:59:06;10.00;;;5.72;;
22652;SDS011;11493;43.344;26.226;2022-07-29T02:01:45;11.85;;;6.13;;
22652;SDS011;11493;43.344;26.226;2022-07-29T02:04:24;15.07;;;6.65;;
22652;SDS011;11493;43.344;26.226;2022-07-29T02:07:02;10.32;;;6.70;;
22652;SDS011;11493;43.344;26.226;2022-07-29T02:09:35;7.25;;;6.60;;
22652;SDS011;11493;43.344;26.226;2022-07-29T02:12:04;15.13;;;6.80;;
22652;SDS011;11493;43.344;26.226;2022-07-29T02:14:35;7.30;;;6.35;;
22652;SDS011;11493;43.344;26.226;2022-07-29T02:17:06;6.90;;;6.25;;
22652;SDS011;11493;43.344;26.226;2022-07-29T02:19:34;13.90;;;7.07;;
22652;SDS011;11493;43.344;26.226;2022-07-29T02:22:04;6.57;;;5.97;;
22652;SDS011;11493;43.344;26.226;2022-07-29T02:24:34;11.32;;;6.50;;
22652;SDS011;11493;43.344;26.226;2022-07-29T02:27:10;13.48;;;6.28;;
22652;SDS011;11493;43.344;26.226;2022-07-29T02:29:43;8.70;;;6.32;;
22652;SDS011;11493;43.344;26.226;2022-07-29T02:32:25;6.55;;;6.03;;
22652;SDS011;11493;43.344;26.226;2022-07-29T02:34:57;12.57;;;8.50;;
22652;SDS011;11493;43.344;26.226;2022-07-29T02:37:26;42.67;;;35.53;;
22652;SDS011;11493;43.344;26.226;2022-07-29T02:39:55;38.22;;;31.38;;
22652;SDS011;11493;43.344;26.226;2022-07-29T02:42:26;32.08;;;25.73;;
22652;SDS011;11493;43.344;26.226;2022-07-29T02:44:54;23.65;;;21.20;;
22652;SDS011;11493;43.344;26.226;2022-07-29T02:47:36;19.95;;;16.73;;
22652;SDS011;11493;43.344;26.226;2022-07-29T02:55:55;8.90;;;8.10;;
22652;SDS011;11493;43.344;26.226;2022-07-29T02:58:25;9.32;;;7.25;;
22652;SDS011;11493;43.344;26.226;2022-07-29T03:01:03;11.35;;;6.35;;
22652;SDS011;11493;43.344;26.226;2022-07-29T03:03:36;10.13;;;5.90;;
22652;SDS011;11493;43.344;26.226;2022-07-29T03:06:05;11.10;;;6.20;;
22652;SDS011;11493;43.344;26.226;2022-07-29T03:08:55;8.93;;;5.05;;
22652;SDS011;11493;43.344;26.226;2022-07-29T03:11:24;10.38;;;5.90;;
22652;SDS011;11493;43.344;26.226;2022-07-29T03:14:18;11.70;;;6.85;;
22652;SDS011;11493;43.344;26.226;2022-07-29T03:16:48;13.75;;;5.82;;
22652;SDS011;11493;43.344;26.226;2022-07-29T03:19:44;11.98;;;6.28;;
22652;SDS011;11493;43.344;26.226;2022-07-29T03:22:12;7.32;;;6.30;;
22652;SDS011;11493;43.344;26.226;2022-07-29T03:24:44;27.70;;;6.28;;
22652;SDS011;11493;43.344;26.226;2022-07-29T03:27:12;15.88;;;6.50;;
22652;SDS011;11493;43.344;26.226;2022-07-29T03:29:39;9.32;;;7.18;;
22652;SDS011;11493;43.344;26.226;2022-07-29T03:32:15;10.82;;;6.60;;
22652;SDS011;11493;43.344;26.226;2022-07-29T03:34:51;6.65;;;5.90;;
22652;SDS011;11493;43.344;26.226;2022-07-29T03:37:19;8.93;;;6.30;;
22652;SDS011;11493;43.344;26.226;2022-07-29T03:39:50;8.07;;;6.70;;
22652;SDS011;11493;43.344;26.226;2022-07-29T03:42:19;9.25;;;6.78;;
22652;SDS011;11493;43.344;26.226;2022-07-29T03:44:54;9.02;;;6.90;;
22652;SDS011;11493;43.344;26.226;2022-07-29T03:47:25;9.38;;;6.60;;
22652;SDS011;11493;43.344;26.226;2022-07-29T03:50:15;10.23;;;6.47;;
22652;SDS011;11493;43.344;26.226;2022-07-29T03:52:45;6.65;;;6.05;;
22652;SDS011;11493;43.344;26.226;2022-07-29T03:55:14;10.80;;;6.88;;
22652;SDS011;11493;43.344;26.226;2022-07-29T03:57:48;8.10;;;7.20;;
22652;SDS011;11493;43.344;26.226;2022-07-29T04:00:24;10.30;;;6.72;;
22652;SDS011;11493;43.344;26.226;2022-07-29T04:03:00;11.95;;;7.07;;
22652;SDS011;11493;43.344;26.226;2022-07-29T04:05:37;12.38;;;6.53;;
22652;SDS011;11493;43.344;26.226;2022-07-29T04:08:05;6.95;;;6.35;;
22652;SDS011;11493;43.344;26.226;2022-07-29T04:10:32;7.55;;;6.38;;
22652;SDS011;11493;43.344;26.226;2022-07-29T04:13:01;9.93;;;6.45;;
22652;SDS011;11493;43.344;26.226;2022-07-29T04:15:29;10.02;;;7.30;;
22652;SDS011;11493;43.344;26.226;2022-07-29T04:17:58;13.88;;;6.85;;
22652;SDS011;11493;43.344;26.226;2022-07-29T04:20:26;8.35;;;6.63;;
22652;SDS011;11493;43.344;26.226;2022-07-29T04:25:24;9.77;;;7.25;;
22652;SDS011;11493;43.344;26.226;2022-07-29T04:27:51;11.90;;;7.82;;
22652;SDS011;11493;43.344;26.226;2022-07-29T04:30:28;9.70;;;7.60;;
22652;SDS011;11493;43.344;26.226;2022-07-29T04:32:58;8.23;;;7.55;;
22652;SDS011;11493;43.344;26.226;2022-07-29T04:35:27;8.98;;;8.20;;
22652;SDS011;11493;43.344;26.226;2022-07-29T04:38:04;9.80;;;7.35;;
22652;SDS011;11493;43.344;26.226;2022-07-29T04:40:41;9.35;;;7.75;;
22652;SDS011;11493;43.344;26.226;2022-07-29T04:43:08;10.73;;;8.82;;
22652;SDS011;11493;43.344;26.226;2022-07-29T04:45:38;11.50;;;9.13;;
22652;SDS011;11493;43.344;26.226;2022-07-29T04:48:14;10.85;;;9.32;;
22652;SDS011;11493;43.344;26.226;2022-07-29T04:50:41;10.20;;;9.30;;
22652;SDS011;11493;43.344;26.226;2022-07-29T04:53:13;12.15;;;9.00;;
22652;SDS011;11493;43.344;26.226;2022-07-29T04:55:41;13.57;;;9.48;;
22652;SDS011;11493;43.344;26.226;2022-07-29T04:58:08;12.88;;;9.80;;
22652;SDS011;11493;43.344;26.226;2022-07-29T05:00:39;10.85;;;9.77;;
22652;SDS011;11493;43.344;26.226;2022-07-29T05:03:12;16.73;;;10.32;;
22652;SDS011;11493;43.344;26.226;2022-07-29T05:05:39;10.07;;;9.25;;
22652;SDS011;11493;43.344;26.226;2022-07-29T05:08:07;11.20;;;10.23;;
22652;SDS011;11493;43.344;26.226;2022-07-29T05:10:34;14.60;;;9.07;;
22652;SDS011;11493;43.344;26.226;2022-07-29T05:13:11;14.38;;;9.05;;
22652;SDS011;11493;43.344;26.226;2022-07-29T05:15:39;10.10;;;7.28;;
22652;SDS011;11493;43.344;26.226;2022-07-29T05:18:06;7.88;;;7.22;;
22652;SDS011;11493;43.344;26.226;2022-07-29T05:20:34;9.38;;;8.63;;
22652;SDS011;11493;43.344;26.226;2022-07-29T05:23:01;10.85;;;8.80;;
22652;SDS011;11493;43.344;26.226;2022-07-29T05:25:29;15.15;;;8.75;;
22652;SDS011;11493;43.344;26.226;2022-07-29T05:28:10;13.73;;;7.55;;
22652;SDS011;11493;43.344;26.226;2022-07-29T05:30:38;10.80;;;7.68;;
22652;SDS011;11493;43.344;26.226;2022-07-29T05:33:05;12.10;;;8.40;;
22652;SDS011;11493;43.344;26.226;2022-07-29T05:35:33;10.27;;;8.32;;
22652;SDS011;11493;43.344;26.226;2022-07-29T05:38:01;15.35;;;9.07;;
22652;SDS011;11493;43.344;26.226;2022-07-29T05:40:29;12.63;;;8.68;;
22652;SDS011;11493;43.344;26.226;2022-07-29T05:42:56;15.80;;;7.63;;
22652;SDS011;11493;43.344;26.226;2022-07-29T05:45:23;11.45;;;7.32;;
22652;SDS011;11493;43.344;26.226;2022-07-29T05:47:51;9.38;;;7.65;;
22652;SDS011;11493;43.344;26.226;2022-07-29T05:50:18;8.02;;;7.40;;
22652;SDS011;11493;43.344;26.226;2022-07-29T05:52:45;8.73;;;6.45;;
22652;SDS011;11493;43.344;26.226;2022-07-29T05:55:15;13.02;;;6.55;;
22652;SDS011;11493;43.344;26.226;2022-07-29T05:57:42;11.45;;;7.70;;
22652;SDS011;11493;43.344;26.226;2022-07-29T06:00:11;15.45;;;7.55;;
22652;SDS011;11493;43.344;26.226;2022-07-29T06:02:39;15.90;;;6.10;;
22652;SDS011;11493;43.344;26.226;2022-07-29T06:05:06;7.45;;;5.55;;
22652;SDS011;11493;43.344;26.226;2022-07-29T06:07:42;9.20;;;4.57;;
22652;SDS011;11493;43.344;26.226;2022-07-29T06:10:17;6.95;;;4.97;;
22652;SDS011;11493;43.344;26.226;2022-07-29T06:12:50;12.85;;;6.30;;
22652;SDS011;11493;43.344;26.226;2022-07-29T06:15:17;6.15;;;5.22;;
22652;SDS011;11493;43.344;26.226;2022-07-29T06:17:45;7.95;;;5.07;;
22652;SDS011;11493;43.344;26.226;2022-07-29T06:22:56;6.13;;;4.40;;
22652;SDS011;11493;43.344;26.226;2022-07-29T06:25:24;3.95;;;3.05;;
22652;SDS011;11493;43.344;26.226;2022-07-29T06:27:51;4.25;;;3.92;;
22652;SDS011;11493;43.344;26.226;2022-07-29T06:30:19;4.07;;;3.67;;
22652;SDS011;11493;43.344;26.226;2022-07-29T06:32:46;5.32;;;3.97;;
22652;SDS011;11493;43.344;26.226;2022-07-29T06:35:13;6.35;;;4.30;;
22652;SDS011;11493;43.344;26.226;2022-07-29T06:38:01;4.72;;;4.32;;
22652;SDS011;11493;43.344;26.226;2022-07-29T06:40:42;5.22;;;4.82;;
22652;SDS011;11493;43.344;26.226;2022-07-29T06:43:32;6.95;;;4.40;;
22652;SDS011;11493;43.344;26.226;2022-07-29T06:46:17;7.10;;;5.40;;
22652;SDS011;11493;43.344;26.226;2022-07-29T06:48:46;9.90;;;6.07;;
22652;SDS011;11493;43.344;26.226;2022-07-29T06:51:17;6.80;;;6.20;;
22652;SDS011;11493;43.344;26.226;2022-07-29T06:56:32;9.55;;;4.68;;
22652;SDS011;11493;43.344;26.226;2022-07-29T06:59:06;10.85;;;5.05;;
22652;SDS011;11493;43.344;26.226;2022-07-29T07:01:39;5.35;;;4.93;;
22652;SDS011;11493;43.344;26.226;2022-07-29T07:04:09;5.40;;;4.90;;
22652;SDS011;11493;43.344;26.226;2022-07-29T07:06:38;3.33;;;3.00;;
22652;SDS011;11493;43.344;26.226;2022-07-29T07:09:06;3.80;;;3.22;;
22652;SDS011;11493;43.344;26.226;2022-07-29T07:11:34;8.18;;;3.58;;
22652;SDS011;11493;43.344;26.226;2022-07-29T07:14:01;3.20;;;2.72;;
22652;SDS011;11493;43.344;26.226;2022-07-29T07:16:30;3.10;;;2.80;;
22652;SDS011;11493;43.344;26.226;2022-07-29T07:18:59;5.57;;;3.47;;
22652;SDS011;11493;43.344;26.226;2022-07-29T07:21:26;7.75;;;3.10;;
22652;SDS011;11493;43.344;26.226;2022-07-29T07:23:56;4.28;;;3.47;;
22652;SDS011;11493;43.344;26.226;2022-07-29T07:26:24;5.70;;;3.60;;
22652;SDS011;11493;43.344;26.226;2022-07-29T07:28:52;6.70;;;2.95;;
22652;SDS011;11493;43.344;26.226;2022-07-29T07:31:22;5.63;;;3.40;;
22652;SDS011;11493;43.344;26.226;2022-07-29T07:33:49;7.55;;;3.35;;
22652;SDS011;11493;43.344;26.226;2022-07-29T07:36:18;8.68;;;3.45;;
22652;SDS011;11493;43.344;26.226;2022-07-29T07:38:45;6.95;;;3.47;;
22652;SDS011;11493;43.344;26.226;2022-07-29T07:41:13;8.70;;;3.22;;
22652;SDS011;11493;43.344;26.226;2022-07-29T07:43:40;8.30;;;2.58;;
22652;SDS011;11493;43.344;26.226;2022-07-29T07:46:07;8.45;;;3.60;;
22652;SDS011;11493;43.344;26.226;2022-07-29T07:48:35;4.18;;;3.10;;
22652;SDS011;11493;43.344;26.226;2022-07-29T07:51:02;3.35;;;2.75;;
22652;SDS011;11493;43.344;26.226;2022-07-29T07:53:30;3.40;;;2.80;;
22652;SDS011;11493;43.344;26.226;2022-07-29T07:55:58;4.32;;;2.65;;
22652;SDS011;11493;43.344;26.226;2022-07-29T07:58:41;2.95;;;2.75;;
22652;SDS011;11493;43.344;26.226;2022-07-29T08:01:08;4.88;;;2.33;;
22652;SDS011;11493;43.344;26.226;2022-07-29T08:03:36;2.63;;;2.42;;
22652;SDS011;11493;43.344;26.226;2022-07-29T08:06:03;6.25;;;3.10;;
22652;SDS011;11493;43.344;26.226;2022-07-29T08:08:31;3.75;;;2.78;;
22652;SDS011;11493;43.344;26.226;2022-07-29T08:10:59;2.47;;;1.80;;
22652;SDS011;11493;43.344;26.226;2022-07-29T08:13:35;4.95;;;2.70;;
22652;SDS011;11493;43.344;26.226;2022-07-29T08:16:03;3.83;;;2.17;;
22652;SDS011;11493;43.344;26.226;2022-07-29T08:18:40;3.38;;;2.10;;
22652;SDS011;11493;43.344;26.226;2022-07-29T08:21:09;17.95;;;2.53;;
22652;SDS011;11493;43.344;26.226;2022-07-29T08:23:40;3.97;;;1.73;;
22652;SDS011;11493;43.344;26.226;2022-07-29T08:26:27;5.60;;;1.70;;
22652;SDS011;11493;43.344;26.226;2022-07-29T08:28:55;7.45;;;2.20;;
22652;SDS011;11493;43.344;26.226;2022-07-29T08:31:22;3.00;;;1.80;;
22652;SDS011;11493;43.344;26.226;2022-07-29T08:33:50;3.95;;;2.03;;
22652;SDS011;11493;43.344;26.226;2022-07-29T08:36:17;2.75;;;1.77;;
22652;SDS011;11493;43.344;26.226;2022-07-29T08:38:47;4.57;;;1.80;;
22652;SDS011;11493;43.344;26.226;2022-07-29T08:41:16;2.85;;;1.83;;
22652;SDS011;11493;43.344;26.226;2022-07-29T08:43:49;8.23;;;1.80;;
22652;SDS011;11493;43.344;26.226;2022-07-29T08:46:16;3.35;;;1.70;;
22652;SDS011;11493;43.344;26.226;2022-07-29T08:48:44;2.40;;;1.50;;
22652;SDS011;11493;43.344;26.226;2022-07-29T08:51:13;2.38;;;1.70;;
22652;SDS011;11493;43.344;26.226;2022-07-29T08:53:42;2.53;;;2.10;;
22652;SDS011;11493;43.344;26.226;2022-07-29T08:56:11;4.65;;;1.92;;
22652;SDS011;11493;43.344;26.226;2022-07-29T08:58:47;2.22;;;1.83;;
22652;SDS011;11493;43.344;26.226;2022-07-29T09:01:23;4.47;;;1.80;;
22652;SDS011;11493;43.344;26.226;2022-07-29T09:04:11;2.42;;;1.98;;
22652;SDS011;11493;43.344;26.226;2022-07-29T09:06:44;4.35;;;1.90;;
22652;SDS011;11493;43.344;26.226;2022-07-29T09:09:14;7.03;;;2.30;;
22652;SDS011;11493;43.344;26.226;2022-07-29T09:11:42;3.38;;;2.20;;
22652;SDS011;11493;43.344;26.226;2022-07-29T09:14:13;17.60;;;2.95;;
22652;SDS011;11493;43.344;26.226;2022-07-29T09:16:54;4.88;;;2.05;;
22652;SDS011;11493;43.344;26.226;2022-07-29T09:19:24;3.38;;;2.30;;
22652;SDS011;11493;43.344;26.226;2022-07-29T09:21:53;3.63;;;2.30;;
22652;SDS011;11493;43.344;26.226;2022-07-29T09:24:36;6.85;;;2.20;;
22652;SDS011;11493;43.344;26.226;2022-07-29T09:29:44;9.57;;;2.40;;
22652;SDS011;11493;43.344;26.226;2022-07-29T09:32:11;8.52;;;2.17;;
22652;SDS011;11493;43.344;26.226;2022-07-29T09:34:39;8.15;;;2.47;;
22652;SDS011;11493;43.344;26.226;2022-07-29T09:37:07;6.68;;;2.20;;
22652;SDS011;11493;43.344;26.226;2022-07-29T09:39:36;3.72;;;1.88;;
22652;SDS011;11493;43.344;26.226;2022-07-29T09:42:12;4.03;;;1.80;;
22652;SDS011;11493;43.344;26.226;2022-07-29T09:44:46;3.80;;;2.10;;
22652;SDS011;11493;43.344;26.226;2022-07-29T09:47:16;2.97;;;2.15;;
22652;SDS011;11493;43.344;26.226;2022-07-29T09:49:55;2.30;;;1.60;;
22652;SDS011;11493;43.344;26.226;2022-07-29T09:52:25;3.65;;;1.80;;
22652;SDS011;11493;43.344;26.226;2022-07-29T09:55:04;5.15;;;1.90;;
22652;SDS011;11493;43.344;26.226;2022-07-29T09:57:32;6.43;;;2.15;;
22652;SDS011;11493;43.344;26.226;2022-07-29T10:02:38;7.45;;;2.20;;
22652;SDS011;11493;43.344;26.226;2022-07-29T10:05:15;3.30;;;2.30;;
22652;SDS011;11493;43.344;26.226;2022-07-29T10:07:52;2.85;;;2.10;;
22652;SDS011;11493;43.344;26.226;2022-07-29T10:10:25;7.80;;;2.00;;
22652;SDS011;11493;43.344;26.226;2022-07-29T10:19:52;5.88;;;2.40;;
22652;SDS011;11493;43.344;26.226;2022-07-29T10:22:20;8.15;;;3.22;;
22652;SDS011;11493;43.344;26.226;2022-07-29T10:25:08;5.97;;;2.00;;
22652;SDS011;11493;43.344;26.226;2022-07-29T10:27:36;4.63;;;1.85;;
22652;SDS011;11493;43.344;26.226;2022-07-29T10:30:04;3.35;;;1.80;;
22652;SDS011;11493;43.344;26.226;2022-07-29T10:44:42;6.50;;;1.83;;
22652;SDS011;11493;43.344;26.226;2022-07-29T10:47:24;6.60;;;1.95;;
22652;SDS011;11493;43.344;26.226;2022-07-29T10:49:59;5.32;;;1.90;;
22652;SDS011;11493;43.344;26.226;2022-07-29T10:55:53;4.70;;;1.75;;
22652;SDS011;11493;43.344;26.226;2022-07-29T11:00:51;7.85;;;1.67;;
22652;SDS011;11493;43.344;26.226;2022-07-29T11:06:16;2.70;;;1.80;;
22652;SDS011;11493;43.344;26.226;2022-07-29T11:12:03;8.93;;;1.65;;
22652;SDS011;11493;43.344;26.226;2022-07-29T11:14:58;5.50;;;1.73;;
22652;SDS011;11493;43.344;26.226;2022-07-29T11:17:49;35.47;;;5.05;;
22652;SDS011;11493;43.344;26.226;2022-07-29T11:28:57;3.35;;;1.48;;
22652;SDS011;11493;43.344;26.226;2022-07-29T11:31:38;2.60;;;1.73;;
22652;SDS011;11493;43.344;26.226;2022-07-29T11:39:43;5.13;;;1.70;;
22652;SDS011;11493;43.344;26.226;2022-07-29T11:45:07;2.67;;;2.25;;
22652;SDS011;11493;43.344;26.226;2022-07-29T11:47:56;4.22;;;1.50;;
22652;SDS011;11493;43.344;26.226;2022-07-29T11:53:10;3.17;;;1.70;;
22652;SDS011;11493;43.344;26.226;2022-07-29T11:55:39;19.42;;;1.90;;
22652;SDS011;11493;43.344;26.226;2022-07-29T11:58:23;7.32;;;2.00;;
22652;SDS011;11493;43.344;26.226;2022-07-29T12:00:52;2.17;;;1.60;;
22652;SDS011;11493;43.344;26.226;2022-07-29T12:03:24;7.95;;;2.63;;
22652;SDS011;11493;43.344;26.226;2022-07-29T12:06:01;11.30;;;1.73;;
22652;SDS011;11493;43.344;26.226;2022-07-29T12:08:38;10.85;;;1.90;;
22652;SDS011;11493;43.344;26.226;2022-07-29T12:11:14;8.27;;;1.80;;
22652;SDS011;11493;43.344;26.226;2022-07-29T12:13:46;3.67;;;1.88;;
22652;SDS011;11493;43.344;26.226;2022-07-29T12:16:15;11.35;;;2.50;;
22652;SDS011;11493;43.344;26.226;2022-07-29T12:18:58;3.20;;;1.60;;
22652;SDS011;11493;43.344;26.226;2022-07-29T12:21:29;9.57;;;1.80;;
22652;SDS011;11493;43.344;26.226;2022-07-29T12:24:19;1.63;;;1.52;;
22652;SDS011;11493;43.344;26.226;2022-07-29T12:26:57;4.05;;;1.63;;
22652;SDS011;11493;43.344;26.226;2022-07-29T12:29:26;4.78;;;1.60;;
22652;SDS011;11493;43.344;26.226;2022-07-29T12:32:01;8.27;;;1.63;;
22652;SDS011;11493;43.344;26.226;2022-07-29T12:34:31;10.32;;;1.58;;
22652;SDS011;11493;43.344;26.226;2022-07-29T12:36:59;2.80;;;1.58;;
22652;SDS011;11493;43.344;26.226;2022-07-29T12:39:28;1.98;;;1.30;;
22652;SDS011;11493;43.344;26.226;2022-07-29T12:41:55;3.47;;;1.55;;
22652;SDS011;11493;43.344;26.226;2022-07-29T12:44:49;9.65;;;3.30;;
22652;SDS011;11493;43.344;26.226;2022-07-29T12:47:18;2.58;;;1.60;;
22652;SDS011;11493;43.344;26.226;2022-07-29T12:49:48;4.35;;;1.80;;
22652;SDS011;11493;43.344;26.226;2022-07-29T12:52:27;3.05;;;1.60;;
22652;SDS011;11493;43.344;26.226;2022-07-29T12:54:55;6.25;;;1.77;;
22652;SDS011;11493;43.344;26.226;2022-07-29T12:57:22;4.22;;;1.63;;
22652;SDS011;11493;43.344;26.226;2022-07-29T13:00:24;8.88;;;1.80;;
22652;SDS011;11493;43.344;26.226;2022-07-29T13:02:58;4.32;;;1.52;;
22652;SDS011;11493;43.344;26.226;2022-07-29T13:08:20;2.65;;;1.60;;
22652;SDS011;11493;43.344;26.226;2022-07-29T13:10:48;1.60;;;1.45;;
22652;SDS011;11493;43.344;26.226;2022-07-29T13:13:16;4.50;;;1.73;;
22652;SDS011;11493;43.344;26.226;2022-07-29T13:15:44;2.35;;;1.70;;
22652;SDS011;11493;43.344;26.226;2022-07-29T13:18:28;4.72;;;1.52;;
22652;SDS011;11493;43.344;26.226;2022-07-29T13:21:10;6.20;;;1.50;;
22652;SDS011;11493;43.344;26.226;2022-07-29T13:23:39;5.78;;;1.58;;
22652;SDS011;11493;43.344;26.226;2022-07-29T13:26:07;2.17;;;1.60;;
22652;SDS011;11493;43.344;26.226;2022-07-29T13:28:35;4.43;;;1.40;;
22652;SDS011;11493;43.344;26.226;2022-07-29T13:31:03;1.63;;;1.30;;
22652;SDS011;11493;43.344;26.226;2022-07-29T13:33:31;3.03;;;1.80;;
22652;SDS011;11493;43.344;26.226;2022-07-29T13:36:00;4.47;;;1.55;;
22652;SDS011;11493;43.344;26.226;2022-07-29T13:38:28;29.80;;;4.20;;
22652;SDS011;11493;43.344;26.226;2022-07-29T13:40:57;4.65;;;2.22;;
22652;SDS011;11493;43.344;26.226;2022-07-29T13:43:25;4.28;;;2.63;;
22652;SDS011;11493;43.344;26.226;2022-07-29T13:45:53;8.23;;;1.60;;
22652;SDS011;11493;43.344;26.226;2022-07-29T13:48:20;5.65;;;1.45;;
22652;SDS011;11493;43.344;26.226;2022-07-29T13:50:48;2.35;;;1.60;;
22652;SDS011;11493;43.344;26.226;2022-07-29T13:53:16;1.52;;;1.42;;
22652;SDS011;11493;43.344;26.226;2022-07-29T13:55:47;5.82;;;1.42;;
22652;SDS011;11493;43.344;26.226;2022-07-29T13:58:17;2.03;;;1.50;;
22652;SDS011;11493;43.344;26.226;2022-07-29T14:00:45;3.97;;;1.88;;
22652;SDS011;11493;43.344;26.226;2022-07-29T14:03:14;4.25;;;1.70;;
22652;SDS011;11493;43.344;26.226;2022-07-29T14:06:14;4.32;;;1.88;;
22652;SDS011;11493;43.344;26.226;2022-07-29T14:08:48;3.97;;;1.63;;
22652;SDS011;11493;43.344;26.226;2022-07-29T14:11:16;2.50;;;1.70;;
22652;SDS011;11493;43.344;26.226;2022-07-29T14:13:53;4.22;;;1.52;;
22652;SDS011;11493;43.344;26.226;2022-07-29T14:16:22;6.05;;;1.40;;
22652;SDS011;11493;43.344;26.226;2022-07-29T14:18:49;8.05;;;1.88;;
22652;SDS011;11493;43.344;26.226;2022-07-29T14:21:17;2.05;;;1.45;;
22652;SDS011;11493;43.344;26.226;2022-07-29T14:23:44;6.47;;;1.60;;
22652;SDS011;11493;43.344;26.226;2022-07-29T14:26:12;6.18;;;1.80;;
22652;SDS011;11493;43.344;26.226;2022-07-29T14:28:47;2.92;;;1.80;;
22652;SDS011;11493;43.344;26.226;2022-07-29T14:31:15;3.95;;;1.60;;
22652;SDS011;11493;43.344;26.226;2022-07-29T14:33:43;2.63;;;1.65;;
22652;SDS011;11493;43.344;26.226;2022-07-29T14:36:15;2.38;;;1.80;;
22652;SDS011;11493;43.344;26.226;2022-07-29T14:38:46;2.05;;;1.77;;
22652;SDS011;11493;43.344;26.226;2022-07-29T14:41:13;2.65;;;1.50;;
22652;SDS011;11493;43.344;26.226;2022-07-29T14:43:41;5.35;;;1.70;;
22652;SDS011;11493;43.344;26.226;2022-07-29T14:46:08;4.93;;;2.00;;
22652;SDS011;11493;43.344;26.226;2022-07-29T14:48:36;7.53;;;1.77;;
22652;SDS011;11493;43.344;26.226;2022-07-29T14:51:03;4.78;;;1.80;;
22652;SDS011;11493;43.344;26.226;2022-07-29T14:53:32;2.70;;;1.63;;
22652;SDS011;11493;43.344;26.226;2022-07-29T14:56:00;7.57;;;1.80;;
22652;SDS011;11493;43.344;26.226;2022-07-29T14:58:48;10.15;;;1.63;;
22652;SDS011;11493;43.344;26.226;2022-07-29T15:01:17;4.57;;;1.50;;
22652;SDS011;11493;43.344;26.226;2022-07-29T15:03:45;3.45;;;1.63;;
22652;SDS011;11493;43.344;26.226;2022-07-29T15:06:13;7.90;;;1.80;;
22652;SDS011;11493;43.344;26.226;2022-07-29T15:08:40;1.75;;;1.60;;
22652;SDS011;11493;43.344;26.226;2022-07-29T15:11:08;1.55;;;1.40;;
22652;SDS011;11493;43.344;26.226;2022-07-29T15:13:35;3.20;;;1.60;;
22652;SDS011;11493;43.344;26.226;2022-07-29T15:16:04;2.10;;;1.35;;
22652;SDS011;11493;43.344;26.226;2022-07-29T15:18:32;2.78;;;1.60;;
22652;SDS011;11493;43.344;26.226;2022-07-29T15:20:59;2.25;;;1.48;;
22652;SDS011;11493;43.344;26.226;2022-07-29T15:23:28;3.45;;;1.90;;
22652;SDS011;11493;43.344;26.226;2022-07-29T15:25:55;4.55;;;1.92;;
22652;SDS011;11493;43.344;26.226;2022-07-29T15:28:23;4.15;;;1.70;;
22652;SDS011;11493;43.344;26.226;2022-07-29T15:30:51;5.05;;;1.60;;
22652;SDS011;11493;43.344;26.226;2022-07-29T15:33:19;2.63;;;1.80;;
22652;SDS011;11493;43.344;26.226;2022-07-29T15:35:48;22.13;;;1.70;;
22652;SDS011;11493;43.344;26.226;2022-07-29T15:38:15;2.10;;;1.90;;
22652;SDS011;11493;43.344;26.226;2022-07-29T15:40:43;2.90;;;1.65;;
22652;SDS011;11493;43.344;26.226;2022-07-29T15:43:11;4.55;;;1.80;;
22652;SDS011;11493;43.344;26.226;2022-07-29T15:45:41;2.13;;;1.40;;
22652;SDS011;11493;43.344;26.226;2022-07-29T15:48:29;3.45;;;1.48;;
22652;SDS011;11493;43.344;26.226;2022-07-29T15:50:59;1.75;;;1.65;;
22652;SDS011;11493;43.344;26.226;2022-07-29T15:53:27;3.45;;;1.60;;
22652;SDS011;11493;43.344;26.226;2022-07-29T15:55:55;4.60;;;1.80;;
22652;SDS011;11493;43.344;26.226;2022-07-29T15:58:23;10.30;;;1.90;;
22652;SDS011;11493;43.344;26.226;2022-07-29T16:00:50;2.67;;;1.45;;
22652;SDS011;11493;43.344;26.226;2022-07-29T16:03:18;5.30;;;1.73;;
22652;SDS011;11493;43.344;26.226;2022-07-29T16:05:45;4.82;;;1.92;;
22652;SDS011;11493;43.344;26.226;2022-07-29T16:08:12;4.53;;;1.60;;
22652;SDS011;11493;43.344;26.226;2022-07-29T16:10:39;7.53;;;1.60;;
22652;SDS011;11493;43.344;26.226;2022-07-29T16:13:07;2.05;;;1.85;;
22652;SDS011;11493;43.344;26.226;2022-07-29T16:15:35;2.80;;;1.63;;
22652;SDS011;11493;43.344;26.226;2022-07-29T16:18:02;4.45;;;1.67;;